Moore, Texas
Current Conditions -  °F | °C
As of 6:15 PM on Friday 24 Oct 2014 (Local Time) from KCVB Reporting Station
Broken Clouds Broken Clouds  
Wind Chill: 85°   Ceiling: 7000
Heat Index: 85°   Visibility: 10mi
Dew Point: 53°   Wind: 7mph
Humidity: 33%   Direction: 140°SE
Pressure: 30.08"   Gusts: NA
Location:  29.06°N, 99.01°W
Report Text: KCVB 242315Z AUTO 14006KT 10SM BKN070 30/12 A3008 RMK AO2 T02950117
Loading
Personal Weather Stations






























Interactive Weather Map New forecast layout! Learn more

10-Day Weather Forecast

Advertisements
Track Severe Weather on mobile